ENY3438 KCRP-KDFW
Flight info
| Callsign | ENY3438 |
|---|---|
| Flight time | N/A |
| Altitude | 34000 |
| Route | ATHIS CARTI T499 SAT GUTZZ BOOVE7 |
| Aircraft | E75L/M-SDE3GILORVW/S |
Departure
| Time | 2026-04-27 15:05 |
|---|---|
| Airport | Corpus Christi International Airport (KCRP) |
Arrival
| Time | N/A |
|---|---|
| Airport | Dallas Fort Worth International Airport (KDFW) |
| Time | Latitude | Longitude | Altitude | Speed | Heading |
|---|---|---|---|---|---|
| 2026-04-27 14:49 | 27.77324 | -97.50256 | 51 ft | 0 kts | 40° |
| 2026-04-27 14:58 | 27.77321 | -97.50259 | 51 ft | 3 kts | 40° |
| 2026-04-27 14:58 | 27.77301 | -97.50278 | 49 ft | 4 kts | 38° |
| 2026-04-27 14:58 | 27.77290 | -97.50292 | 46 ft | 4 kts | 71° |
| 2026-04-27 14:58 | 27.77287 | -97.50322 | 51 ft | 4 kts | 94° |
| 2026-04-27 14:59 | 27.77290 | -97.50352 | 51 ft | 4 kts | 88° |
| 2026-04-27 14:59 | 27.77286 | -97.50366 | 51 ft | 1 kts | 48° |
| 2026-04-27 15:01 | 27.77292 | -97.50364 | 51 ft | 1 kts | 1° |
| 2026-04-27 15:01 | 27.77297 | -97.50368 | 49 ft | 1 kts | 309° |
| 2026-04-27 15:01 | 27.77313 | -97.50390 | 51 ft | 6 kts | 309° |
| 2026-04-27 15:01 | 27.77355 | -97.50439 | 52 ft | 11 kts | 317° |
| 2026-04-27 15:02 | 27.77425 | -97.50513 | 50 ft | 16 kts | 315° |
| 2026-04-27 15:02 | 27.77519 | -97.50616 | 52 ft | 21 kts | 316° |
| 2026-04-27 15:02 | 27.77635 | -97.50744 | 52 ft | 25 kts | 316° |
| 2026-04-27 15:02 | 27.77762 | -97.50881 | 52 ft | 23 kts | 315° |
| 2026-04-27 15:03 | 27.77841 | -97.50975 | 51 ft | 11 kts | 292° |
| 2026-04-27 15:03 | 27.77813 | -97.51054 | 52 ft | 13 kts | 225° |
| 2026-04-27 15:03 | 27.77776 | -97.51138 | 52 ft | 13 kts | 292° |
| 2026-04-27 15:03 | 27.77838 | -97.51224 | 50 ft | 16 kts | 316° |
| 2026-04-27 15:04 | 27.77924 | -97.51314 | 50 ft | 18 kts | 316° |
| 2026-04-27 15:04 | 27.77988 | -97.51404 | 51 ft | 13 kts | 277° |
| 2026-04-27 15:04 | 27.77942 | -97.51493 | 47 ft | 14 kts | 229° |
| 2026-04-27 15:04 | 27.77880 | -97.51522 | 50 ft | 11 kts | 158° |
| 2026-04-27 15:05 | 27.77732 | -97.51377 | 49 ft | 58 kts | 135° |
| 2026-04-27 15:05 | 27.77259 | -97.50859 | 50 ft | 129 kts | 135° |
| 2026-04-27 15:05 | 27.76576 | -97.50018 | 454 ft | 161 kts | 132° |
| 2026-04-27 15:05 | 27.75877 | -97.48971 | 889 ft | 162 kts | 125° |
| 2026-04-27 15:06 | 27.75465 | -97.47726 | 1214 ft | 187 kts | 104° |
| 2026-04-27 15:06 | 27.75540 | -97.46156 | 1816 ft | 216 kts | 79° |
| 2026-04-27 15:06 | 27.76299 | -97.44603 | 2663 ft | 238 kts | 51° |
| 2026-04-27 15:06 | 27.77707 | -97.43422 | 3350 ft | 273 kts | 24° |
| 2026-04-27 15:07 | 27.79639 | -97.43223 | 4178 ft | 287 kts | 345° |
| 2026-04-27 15:07 | 27.81397 | -97.44184 | 5349 ft | 280 kts | 317° |
| 2026-04-27 15:07 | 27.82347 | -97.45180 | 6115 ft | 278 kts | 310° |
| 2026-04-27 15:07 | 27.84015 | -97.47410 | 7524 ft | 278 kts | 307° |
| 2026-04-27 15:08 | 27.85255 | -97.49074 | 8502 ft | 281 kts | 309° |
| 2026-04-27 15:08 | 27.86553 | -97.50733 | 9591 ft | 283 kts | 310° |
| 2026-04-27 15:08 | 27.87872 | -97.52398 | 10425 ft | 292 kts | 310° |
| 2026-04-27 15:08 | 27.88803 | -97.53589 | 10742 ft | 304 kts | 309° |
| 2026-04-27 15:09 | 27.90186 | -97.55483 | 11147 ft | 321 kts | 307° |
| 2026-04-27 15:09 | 27.91558 | -97.57507 | 11542 ft | 336 kts | 305° |
| 2026-04-27 15:09 | 27.92971 | -97.59687 | 11979 ft | 349 kts | 304° |
| 2026-04-27 15:09 | 27.94410 | -97.61944 | 12608 ft | 354 kts | 304° |
| 2026-04-27 15:10 | 27.95852 | -97.64209 | 13387 ft | 355 kts | 304° |
| 2026-04-27 15:10 | 27.97281 | -97.66462 | 14083 ft | 358 kts | 304° |
| 2026-04-27 15:10 | 27.98728 | -97.68762 | 14906 ft | 357 kts | 303° |
| 2026-04-27 15:10 | 28.00152 | -97.71066 | 15670 ft | 359 kts | 302° |
| 2026-04-27 15:11 | 28.01560 | -97.73414 | 16439 ft | 360 kts | 301° |
| 2026-04-27 15:11 | 28.02927 | -97.75759 | 17140 ft | 361 kts | 300° |
| 2026-04-27 15:11 | 28.04281 | -97.78160 | 17846 ft | 362 kts | 299° |
| 2026-04-27 15:11 | 28.05611 | -97.80586 | 18497 ft | 364 kts | 298° |
| 2026-04-27 15:12 | 28.06932 | -97.83051 | 19086 ft | 366 kts | 298° |
| 2026-04-27 15:12 | 28.08103 | -97.85588 | 19846 ft | 360 kts | 293° |
| 2026-04-27 15:12 | 28.09186 | -97.88147 | 20535 ft | 361 kts | 293° |
| 2026-04-27 15:12 | 28.10278 | -97.90716 | 21159 ft | 363 kts | 293° |
| 2026-04-27 15:13 | 28.11381 | -97.93304 | 21760 ft | 366 kts | 294° |
| 2026-04-27 15:13 | 28.12497 | -97.95915 | 22354 ft | 369 kts | 294° |
| 2026-04-27 15:13 | 28.13621 | -97.98547 | 22912 ft | 372 kts | 294° |
| 2026-04-27 15:13 | 28.14738 | -98.01162 | 23460 ft | 375 kts | 293° |
| 2026-04-27 15:14 | 28.16094 | -98.03698 | 23894 ft | 381 kts | 307° |
| 2026-04-27 15:14 | 28.18124 | -98.05667 | 24395 ft | 390 kts | 323° |
| 2026-04-27 15:14 | 28.20539 | -98.07140 | 24882 ft | 394 kts | 327° |
| 2026-04-27 15:14 | 28.22990 | -98.08556 | 25334 ft | 396 kts | 328° |
| 2026-04-27 15:15 | 28.25446 | -98.09952 | 25945 ft | 394 kts | 328° |
| 2026-04-27 15:15 | 28.27909 | -98.11350 | 26383 ft | 396 kts | 328° |
| 2026-04-27 15:15 | 28.29256 | -98.12106 | 26650 ft | 396 kts | 328° |